Time;durP1;ratioP1;P1;durP2;ratioP2;P2;SDS_P1;SDS_P2;PMS_P1;PMS_P2;Temp;Humidity;BMP_temperature;BMP_pressure;BME280_temperature;BME280_humidity;BME280_pressure;Samples;Min_cycle;Max_cycle;Signal;HPM_P1;HPM_P2
2021/01/03 00:01:19;;;;;;;3.80;3.10;;;3.20;99.90;;;;;;4948944;28;20434;-83
2021/01/03 00:03:45;;;;;;;4.43;3.10;;;3.20;99.90;;;;;;4932322;28;20443;-80
2021/01/03 00:06:13;;;;;;;5.87;3.17;;;3.20;99.90;;;;;;4948011;28;20481;-82
2021/01/03 00:08:51;;;;;;;3.80;2.93;;;3.20;99.90;;;;;;4947897;28;20199;-84
2021/01/03 00:11:16;;;;;;;5.10;3.40;;;3.20;99.90;;;;;;4946530;28;20833;-82
2021/01/03 00:13:44;;;;;;;4.13;3.40;;;3.30;99.90;;;;;;4946483;28;20535;-82
2021/01/03 00:16:24;;;;;;;3.30;2.60;;;3.30;99.90;;;;;;4941183;28;20281;-82
2021/01/03 00:18:52;;;;;;;4.10;3.20;;;3.20;99.90;;;;;;4945442;28;20983;-80
2021/01/03 00:21:24;;;;;;;5.13;3.47;;;3.10;99.90;;;;;;4948053;28;20447;-81
2021/01/03 00:23:53;;;;;;;3.57;3.27;;;3.10;99.90;;;;;;4948669;28;20457;-81
2021/01/03 00:26:25;;;;;;;4.30;3.50;;;3.20;99.90;;;;;;4949401;28;21065;-78
2021/01/03 00:28:50;;;;;;;4.83;3.60;;;3.20;99.90;;;;;;4935285;28;20513;-82
2021/01/03 00:31:19;;;;;;;4.03;3.40;;;3.20;99.90;;;;;;4946581;28;20474;-83
2021/01/03 00:33:47;;;;;;;5.50;3.97;;;3.20;99.90;;;;;;4950815;28;20180;-82
2021/01/03 00:36:16;;;;;;;4.13;3.40;;;3.20;99.90;;;;;;4950136;28;20442;-82
2021/01/03 00:38:42;;;;;;;5.90;3.20;;;3.30;99.90;;;;;;4949696;28;20450;-80
2021/01/03 00:41:16;;;;;;;4.73;3.10;;;3.30;99.90;;;;;;4934314;28;20445;-83
2021/01/03 00:43:54;;;;;;;4.50;3.30;;;3.30;99.90;;;;;;4944858;28;20535;-83
2021/01/03 00:46:23;;;;;;;3.70;2.87;;;3.20;99.90;;;;;;4949069;28;20493;-82
2021/01/03 00:48:49;;;;;;;3.90;3.17;;;3.30;99.90;;;;;;4948033;28;20465;-83
2021/01/03 00:51:17;;;;;;;4.87;3.53;;;3.30;99.90;;;;;;4948279;28;20463;-82
2021/01/03 00:53:42;;;;;;;4.93;3.63;;;3.20;99.90;;;;;;4948869;28;20175;-80
2021/01/03 00:56:10;;;;;;;5.93;3.77;;;3.20;99.90;;;;;;4947545;28;20562;-80
2021/01/03 00:58:36;;;;;;;3.60;3.30;;;3.20;99.90;;;;;;4947830;28;20199;-82
2021/01/03 01:01:02;;;;;;;5.90;4.40;;;3.20;99.90;;;;;;4947870;28;20804;-82
2021/01/03 01:03:28;;;;;;;5.00;3.90;;;3.20;99.90;;;;;;4949587;28;20194;-82
2021/01/03 01:05:58;;;;;;;5.37;4.20;;;3.20;99.90;;;;;;4947524;28;20459;-82
2021/01/03 01:08:28;;;;;;;5.30;3.17;;;3.20;99.90;;;;;;4950953;28;20203;-83
2021/01/03 01:10:56;;;;;;;4.40;3.40;;;3.20;99.90;;;;;;4966584;28;20458;-83
2021/01/03 01:13:27;;;;;;;6.10;3.73;;;3.20;99.90;;;;;;4969741;28;20423;-82
2021/01/03 01:15:53;;;;;;;4.47;3.30;;;3.20;99.90;;;;;;4949650;28;20481;-81
2021/01/03 01:18:19;;;;;;;4.30;3.90;;;3.20;99.90;;;;;;4945830;28;20442;-83
2021/01/03 01:20:48;;;;;;;5.03;4.00;;;3.20;99.90;;;;;;4936544;28;20207;-80
2021/01/03 01:23:22;;;;;;;5.17;3.67;;;3.20;99.90;;;;;;4944892;28;20282;-83
2021/01/03 01:26:06;;;;;;;4.03;3.50;;;3.20;99.90;;;;;;4943828;28;20448;-79
2021/01/03 01:28:34;;;;;;;4.67;3.87;;;3.20;99.90;;;;;;4929909;28;20443;-81
2021/01/03 01:31:08;;;;;;;4.10;3.53;;;3.20;99.90;;;;;;4943109;28;20534;-82
2021/01/03 01:33:36;;;;;;;3.23;2.93;;;3.20;99.90;;;;;;4943896;28;20437;-82
2021/01/03 01:36:08;;;;;;;5.10;3.80;;;3.20;99.90;;;;;;4945283;28;20525;-82
2021/01/03 01:38:37;;;;;;;5.10;4.40;;;3.10;99.90;;;;;;4944176;28;20964;-82
2021/01/03 01:41:03;;;;;;;6.20;4.13;;;3.10;99.90;;;;;;4946554;28;20482;-81
2021/01/03 01:43:32;;;;;;;5.40;4.20;;;3.10;99.90;;;;;;4947705;28;20430;-81
2021/01/03 01:46:04;;;;;;;5.17;4.37;;;3.10;99.90;;;;;;4945102;28;20862;-79
2021/01/03 01:48:38;;;;;;;6.87;4.20;;;3.00;99.90;;;;;;4932609;28;20997;-80
2021/01/03 01:51:09;;;;;;;4.30;3.90;;;3.00;99.90;;;;;;4947513;28;20946;-79
2021/01/03 01:53:49;;;;;;;4.77;3.63;;;3.00;99.90;;;;;;4948434;28;20449;-82
2021/01/03 01:56:19;;;;;;;5.43;3.87;;;3.10;99.90;;;;;;4947384;28;20501;-82
2021/01/03 01:59:00;;;;;;;4.73;3.43;;;3.10;99.90;;;;;;4944499;28;20427;-81
2021/01/03 02:01:56;;;;;;;3.50;3.20;;;3.10;99.90;;;;;;4956028;28;20442;-80
2021/01/03 02:04:57;;;;;;;3.43;2.80;;;3.10;99.90;;;;;;4944019;28;20434;-84
2021/01/03 02:07:29;;;;;;;3.67;2.73;;;3.10;99.90;;;;;;4945154;28;21051;-81
2021/01/03 02:10:08;;;;;;;5.47;3.77;;;3.10;99.90;;;;;;4947600;28;21002;-82
2021/01/03 02:12:42;;;;;;;3.53;3.23;;;3.10;99.90;;;;;;4947554;28;20510;-84
2021/01/03 02:15:18;;;;;;;5.80;4.10;;;3.10;99.90;;;;;;4954030;28;20419;-85
2021/01/03 02:17:45;;;;;;;4.60;3.87;;;3.10;99.90;;;;;;4952487;28;20488;-82
2021/01/03 02:20:13;;;;;;;5.60;4.37;;;3.10;99.90;;;;;;4949108;28;20441;-82
2021/01/03 02:22:54;;;;;;;5.40;4.33;;;3.20;99.90;;;;;;4945440;28;20494;-83
2021/01/03 02:25:23;;;;;;;4.47;3.83;;;3.20;99.90;;;;;;4947866;28;20503;-83
2021/01/03 02:28:10;;;;;;;5.50;4.07;;;3.20;99.90;;;;;;4931695;28;20466;-81
2021/01/03 02:30:37;;;;;;;7.40;3.70;;;3.10;99.90;;;;;;4944231;28;20483;-81
2021/01/03 02:33:22;;;;;;;4.50;4.10;;;3.10;99.90;;;;;;4931967;28;20451;-81
2021/01/03 02:35:59;;;;;;;5.90;4.27;;;3.10;99.90;;;;;;4949825;28;20427;-82
2021/01/03 02:38:37;;;;;;;4.80;4.03;;;3.00;99.90;;;;;;4932943;28;20468;-81
2021/01/03 02:41:05;;;;;;;5.40;4.40;;;3.00;99.90;;;;;;4943859;28;20548;-85
2021/01/03 02:43:40;;;;;;;6.40;5.20;;;3.00;99.90;;;;;;4951367;28;20426;-83
2021/01/03 02:46:08;;;;;;;5.97;4.00;;;3.10;99.90;;;;;;4967502;28;20458;-83
2021/01/03 02:48:41;;;;;;;5.53;3.97;;;3.10;99.90;;;;;;4943563;28;20479;-80
2021/01/03 02:51:07;;;;;;;5.00;4.43;;;3.20;99.90;;;;;;4945641;28;20885;-80
2021/01/03 02:53:36;;;;;;;6.50;4.50;;;3.10;99.90;;;;;;4943145;28;20451;-81
2021/01/03 02:56:04;;;;;;;4.40;3.80;;;3.10;99.90;;;;;;4948734;28;20474;-78
2021/01/03 02:59:00;;;;;;;5.47;4.83;;;3.20;99.90;;;;;;4942647;28;20605;-82
2021/01/03 03:01:26;;;;;;;5.67;4.57;;;3.20;99.90;;;;;;4932329;28;20454;-78
2021/01/03 03:03:55;;;;;;;6.27;4.70;;;3.20;99.90;;;;;;4944002;28;20453;-80
2021/01/03 03:06:23;;;;;;;5.17;4.60;;;3.20;99.90;;;;;;4945179;28;20215;-79
2021/01/03 03:08:57;;;;;;;5.87;5.00;;;3.20;99.90;;;;;;4943013;28;20969;-79
2021/01/03 03:11:31;;;;;;;6.33;4.90;;;3.20;99.90;;;;;;4943165;28;20487;-81
2021/01/03 03:14:02;;;;;;;5.60;4.37;;;3.20;99.90;;;;;;4944060;28;20439;-83
2021/01/03 03:16:31;;;;;;;5.23;4.60;;;3.20;99.90;;;;;;4942958;28;20471;-80
2021/01/03 03:19:02;;;;;;;4.67;3.97;;;3.30;99.90;;;;;;4944108;28;20497;-82
2021/01/03 03:21:36;;;;;;;6.27;4.10;;;3.30;99.90;;;;;;4946691;28;20438;-81
2021/01/03 03:24:05;;;;;;;4.87;3.93;;;3.30;99.90;;;;;;4946575;28;20462;-81
2021/01/03 03:26:33;;;;;;;5.63;4.30;;;3.10;99.90;;;;;;4943426;28;20469;-82
2021/01/03 03:29:02;;;;;;;7.30;4.57;;;3.10;99.90;;;;;;4960846;28;20434;-82
2021/01/03 03:31:32;;;;;;;7.50;4.53;;;3.00;99.90;;;;;;4927737;28;20466;-83
2021/01/03 03:33:57;;;;;;;4.70;3.70;;;3.00;99.90;;;;;;4930705;29;20435;-83
2021/01/03 03:36:26;;;;;;;8.47;4.77;;;3.00;99.90;;;;;;4927885;28;20908;-82
2021/01/03 03:38:57;;;;;;;7.80;5.30;;;3.00;99.90;;;;;;4911492;28;20397;-81
2021/01/03 03:41:26;;;;;;;9.47;5.43;;;2.90;99.90;;;;;;4928186;28;20540;-81
2021/01/03 03:43:55;;;;;;;7.13;4.70;;;2.90;99.90;;;;;;4945925;28;20435;-80
2021/01/03 03:46:21;;;;;;;7.87;5.27;;;2.90;99.90;;;;;;4936186;28;20458;-80
2021/01/03 03:48:47;;;;;;;7.27;5.80;;;2.90;99.90;;;;;;4947380;28;20439;-80
2021/01/03 03:51:25;;;;;;;9.67;5.70;;;2.90;99.90;;;;;;4944107;28;20248;-79
2021/01/03 03:53:54;;;;;;;9.57;5.77;;;3.00;99.90;;;;;;4946775;28;20465;-81
2021/01/03 03:56:20;;;;;;;9.17;5.73;;;2.90;99.90;;;;;;4947419;28;20807;-81
2021/01/03 03:58:51;;;;;;;6.40;5.20;;;2.90;99.90;;;;;;4943546;28;20514;-81
2021/01/03 04:01:17;;;;;;;8.37;5.53;;;2.90;99.90;;;;;;4947646;28;20470;-81
2021/01/03 04:03:42;;;;;;;8.40;6.30;;;2.90;99.90;;;;;;4949338;28;20443;-78
2021/01/03 04:06:11;;;;;;;9.50;5.90;;;2.90;99.90;;;;;;4948411;28;20213;-81
2021/01/03 04:08:40;;;;;;;9.37;7.20;;;2.90;99.90;;;;;;4940204;28;20265;-83
2021/01/03 04:11:06;;;;;;;11.33;6.47;;;2.90;99.90;;;;;;4948542;28;20469;-82
2021/01/03 04:13:40;;;;;;;7.83;6.03;;;2.90;99.90;;;;;;4949904;28;20530;-79
2021/01/03 04:16:09;;;;;;;10.33;6.00;;;2.90;99.90;;;;;;4956771;28;20210;-83
2021/01/03 04:18:41;;;;;;;8.43;5.33;;;2.90;99.90;;;;;;4939389;28;20833;-81
2021/01/03 04:21:09;;;;;;;9.37;6.03;;;2.90;99.90;;;;;;4934777;28;20468;-80
2021/01/03 04:23:41;;;;;;;10.23;6.90;;;2.90;99.90;;;;;;4945644;28;20465;-80
2021/01/03 04:26:13;;;;;;;9.37;6.47;;;2.80;99.90;;;;;;4933301;28;20458;-80
2021/01/03 04:28:51;;;;;;;8.40;6.37;;;2.80;99.90;;;;;;4946128;28;20446;-79
2021/01/03 04:31:22;;;;;;;13.03;6.70;;;2.80;99.90;;;;;;4945227;28;20469;-79
2021/01/03 04:33:51;;;;;;;9.13;7.10;;;2.70;99.90;;;;;;4930631;28;20449;-82
2021/01/03 04:36:20;;;;;;;11.27;6.97;;;2.70;99.90;;;;;;4946372;28;20550;-82
2021/01/03 04:38:57;;;;;;;12.33;7.10;;;2.60;99.90;;;;;;4946558;28;20435;-81
2021/01/03 04:41:49;;;;;;;10.20;6.97;;;2.60;99.90;;;;;;4947303;28;20446;-80
2021/01/03 04:44:30;;;;;;;13.13;8.17;;;2.40;99.90;;;;;;4945782;28;20448;-80
2021/01/03 04:47:24;;;;;;;11.37;7.40;;;2.30;99.90;;;;;;4947091;28;20464;-80
2021/01/03 04:50:21;;;;;;;11.10;7.80;;;2.20;99.90;;;;;;4948191;28;20530;-82
2021/01/03 04:53:09;;;;;;;10.23;6.30;;;2.10;99.90;;;;;;4945506;28;20489;-82
2021/01/03 04:56:09;;;;;;;9.97;6.70;;;2.00;99.90;;;;;;4943659;28;20441;-81
2021/01/03 04:59:00;;;;;;;12.20;7.00;;;2.00;99.90;;;;;;4908537;29;20506;-81
2021/01/03 05:05:15;;;;;;;11.60;7.27;;;1.80;99.90;;;;;;4945594;28;20957;-83
2021/01/03 05:08:05;;;;;;;12.40;8.07;;;1.80;99.90;;;;;;4940444;28;20472;-81
2021/01/03 05:10:36;;;;;;;14.00;9.07;;;1.80;99.90;;;;;;4946007;28;21135;-83
2021/01/03 05:14:05;;;;;;;12.60;8.13;;;1.80;99.90;;;;;;4947803;28;20485;-83
2021/01/03 05:17:24;;;;;;;13.80;8.30;;;1.80;99.90;;;;;;4970101;28;20444;-85
2021/01/03 05:20:40;;;;;;;;;;;;;;;;;;;;;
2021/01/03 05:24:22;;;;;;;13.53;9.10;;;1.70;99.90;;;;;;4967666;28;20473;-84
2021/01/03 05:27:35;;;;;;;;;;;;;;;;;;;;;
2021/01/03 05:30:47;;;;;;;12.87;8.73;;;1.70;99.90;;;;;;4891919;29;20471;-83
2021/01/03 05:33:59;;;;;;;;;;;;;;;;;;;;;
2021/01/03 05:37:01;;;;;;;;;;;;;;;;;;;;;
2021/01/03 06:44:56;;;;;;;18.20;11.63;;;1.50;99.90;;;;;;4933138;29;20494;-87
2021/01/03 06:47:51;;;;;;;17.40;10.33;;;1.50;99.90;;;;;;4888839;29;20469;-86
2021/01/03 06:54:26;;;;;;;20.60;12.17;;;1.60;99.90;;;;;;4890563;29;20435;-86
2021/01/03 06:57:30;;;;;;;21.20;10.53;;;1.50;99.90;;;;;;4888491;29;20463;-84
2021/01/03 07:00:57;;;;;;;18.50;11.43;;;1.60;99.90;;;;;;4950755;28;20460;-85
2021/01/03 07:06:12;;;;;;;19.97;10.97;;;1.60;99.90;;;;;;4982143;28;20882;-87
2021/01/03 07:08:52;;;;;;;19.63;12.87;;;1.50;99.90;;;;;;4947341;28;20425;-87
2021/01/03 07:12:06;;;;;;;19.00;12.20;;;1.50;99.90;;;;;;4965607;28;20580;-84
2021/01/03 07:14:37;;;;;;;16.80;10.57;;;1.60;99.90;;;;;;4905048;29;20934;-84
2021/01/03 07:17:17;;;;;;;17.97;11.50;;;1.50;99.90;;;;;;4907613;29;20475;-85
2021/01/03 07:19:58;;;;;;;21.40;10.80;;;1.50;99.90;;;;;;4947749;28;20528;-85
2021/01/03 07:22:46;;;;;;;18.07;11.00;;;1.50;99.90;;;;;;4960632;28;20439;-85
2021/01/03 07:25:57;;;;;;;18.03;11.17;;;1.60;99.90;;;;;;4961536;28;21062;-88
2021/01/03 07:28:39;;;;;;;17.43;10.67;;;1.50;99.90;;;;;;4965273;28;20463;-87
2021/01/03 07:31:25;;;;;;;19.40;11.60;;;1.60;99.90;;;;;;4949059;28;20468;-87
2021/01/03 07:34:07;;;;;;;19.47;11.03;;;1.50;99.90;;;;;;4957505;28;20442;-89
2021/01/03 07:37:02;;;;;;;17.77;11.37;;;1.50;99.90;;;;;;4950955;28;20524;-87
2021/01/03 07:39:30;;;;;;;20.37;12.07;;;1.40;99.90;;;;;;4951922;28;20776;-85
2021/01/03 07:42:16;;;;;;;20.27;10.30;;;1.40;99.90;;;;;;4953446;28;20456;-87
2021/01/03 07:44:42;;;;;;;18.60;10.77;;;1.40;99.90;;;;;;4952563;28;20459;-86
2021/01/03 07:47:11;;;;;;;19.60;10.80;;;1.40;99.90;;;;;;4952876;28;20520;-86
2021/01/03 07:49:39;;;;;;;23.60;10.63;;;1.40;99.90;;;;;;4952895;28;20467;-85
2021/01/03 07:52:28;;;;;;;16.93;10.70;;;1.40;99.90;;;;;;4968201;28;20418;-85
2021/01/03 07:54:58;;;;;;;19.37;10.47;;;1.50;99.90;;;;;;4943375;28;20441;-86
2021/01/03 07:57:26;;;;;;;24.27;12.10;;;1.50;99.90;;;;;;4972193;28;20868;-83
2021/01/03 07:59:57;;;;;;;20.70;11.13;;;1.60;99.90;;;;;;4953352;28;20434;-86
2021/01/03 08:02:28;;;;;;;21.73;11.27;;;1.70;99.90;;;;;;4969308;28;20442;-85
2021/01/03 08:05:01;;;;;;;20.43;11.73;;;1.60;99.90;;;;;;4938104;28;20466;-84
2021/01/03 08:07:35;;;;;;;18.40;10.47;;;1.60;99.90;;;;;;4970171;28;20461;-85
2021/01/03 08:10:10;;;;;;;18.93;11.83;;;1.60;99.90;;;;;;4954976;28;20479;-84
2021/01/03 08:12:44;;;;;;;20.70;11.47;;;1.70;99.90;;;;;;4965207;28;20458;-85
2021/01/03 08:15:29;;;;;;;18.93;11.80;;;1.70;99.90;;;;;;4951690;28;20898;-83
2021/01/03 08:18:18;;;;;;;21.57;12.10;;;1.80;99.90;;;;;;4965771;28;20429;-85
2021/01/03 08:21:06;;;;;;;18.20;11.00;;;1.70;99.90;;;;;;4968688;28;20440;-84
2021/01/03 08:23:35;;;;;;;23.40;12.97;;;1.70;99.90;;;;;;4952714;28;20438;-83
2021/01/03 08:26:15;;;;;;;23.10;12.73;;;1.80;99.90;;;;;;4967033;28;20962;-82
2021/01/03 08:29:05;;;;;;;22.07;11.93;;;1.80;99.90;;;;;;4971192;28;20497;-83
2021/01/03 08:31:51;;;;;;;17.93;10.70;;;1.80;99.90;;;;;;4967720;28;20488;-85
2021/01/03 08:34:27;;;;;;;17.00;11.43;;;1.80;99.90;;;;;;4952107;28;20444;-86
2021/01/03 08:37:17;;;;;;;22.67;12.93;;;1.80;99.90;;;;;;4951415;28;21119;-84
2021/01/03 08:39:47;;;;;;;23.07;12.77;;;1.80;99.90;;;;;;4951493;28;20444;-84
2021/01/03 08:42:29;;;;;;;19.73;12.93;;;1.90;99.90;;;;;;4956313;28;21036;-86
2021/01/03 08:45:01;;;;;;;17.27;10.77;;;2.00;99.90;;;;;;4956904;28;20992;-86
2021/01/03 08:47:38;;;;;;;22.00;12.03;;;2.10;99.90;;;;;;4955424;28;20987;-82
2021/01/03 08:50:09;;;;;;;20.53;11.40;;;2.00;99.90;;;;;;4972008;28;20504;-86
2021/01/03 08:52:35;;;;;;;22.47;11.30;;;2.00;99.90;;;;;;4970124;28;20460;-83
2021/01/03 08:55:10;;;;;;;25.70;13.07;;;2.10;99.90;;;;;;4970433;28;20448;-82
2021/01/03 08:57:38;;;;;;;23.57;12.97;;;2.00;99.90;;;;;;4969375;28;20698;-86
2021/01/03 09:00:19;;;;;;;19.37;11.60;;;2.00;99.90;;;;;;4969256;28;20513;-86
2021/01/03 09:02:53;;;;;;;19.93;11.00;;;2.10;99.90;;;;;;4948347;28;20505;-83
2021/01/03 09:05:24;;;;;;;25.03;12.97;;;2.10;99.90;;;;;;4953067;28;20457;-86
2021/01/03 09:07:55;;;;;;;19.93;11.63;;;2.20;99.90;;;;;;4953027;28;20486;-84
2021/01/03 09:10:46;;;;;;;18.40;11.60;;;2.20;99.90;;;;;;4954909;28;20480;-83
2021/01/03 09:13:23;;;;;;;16.80;10.10;;;2.20;99.90;;;;;;4968266;28;20434;-86
2021/01/03 09:16:06;;;;;;;22.43;12.90;;;2.30;99.90;;;;;;4952583;28;20432;-86
2021/01/03 09:18:53;;;;;;;17.67;10.70;;;2.40;99.90;;;;;;4960793;28;20724;-83
2021/01/03 09:21:19;;;;;;;20.60;12.67;;;2.40;99.90;;;;;;4949716;28;20434;-85
2021/01/03 09:23:47;;;;;;;22.67;13.17;;;2.40;99.90;;;;;;4951089;28;20459;-87
2021/01/03 09:26:13;;;;;;;21.33;12.60;;;2.30;99.90;;;;;;4969413;28;20347;-87
2021/01/03 09:28:42;;;;;;;17.00;11.67;;;2.40;99.90;;;;;;4967814;28;20509;-85
2021/01/03 09:31:34;;;;;;;19.67;12.40;;;2.40;99.90;;;;;;4938422;28;20237;-86
2021/01/03 09:34:25;;;;;;;22.00;11.77;;;2.40;99.90;;;;;;4953976;28;20434;-87
2021/01/03 09:36:57;;;;;;;22.87;11.27;;;2.40;99.90;;;;;;4967720;28;20501;-88
2021/01/03 09:39:47;;;;;;;17.97;11.00;;;2.30;99.90;;;;;;4950466;28;20968;-85
2021/01/03 09:42:40;;;;;;;15.37;9.90;;;2.30;99.90;;;;;;4954210;28;20479;-85
2021/01/03 09:45:21;;;;;;;21.60;10.97;;;2.20;99.90;;;;;;4966225;28;20425;-88
2021/01/03 09:48:07;;;;;;;21.43;11.50;;;2.20;99.90;;;;;;4952331;28;20479;-88
2021/01/03 09:50:41;;;;;;;18.60;8.87;;;2.20;99.90;;;;;;4951024;28;20506;-85
2021/01/03 09:53:25;;;;;;;19.27;11.70;;;2.30;99.90;;;;;;4967592;28;20563;-85
2021/01/03 09:56:09;;;;;;;21.53;11.07;;;2.40;99.90;;;;;;4950134;28;20470;-88
2021/01/03 09:58:46;;;;;;;20.40;10.53;;;2.30;99.90;;;;;;4971094;28;20464;-87
2021/01/03 10:01:30;;;;;;;22.77;10.77;;;2.30;99.90;;;;;;4954733;28;20995;-86
2021/01/03 10:04:11;;;;;;;22.73;13.07;;;2.30;99.90;;;;;;4955891;28;20851;-85
2021/01/03 10:06:47;;;;;;;22.83;13.00;;;2.30;99.90;;;;;;4967767;28;20872;-86
2021/01/03 10:09:37;;;;;;;25.60;14.27;;;2.40;99.90;;;;;;4952098;28;20500;-84
2021/01/03 10:12:44;;;;;;;23.03;12.10;;;2.50;99.90;;;;;;4948178;28;20936;-86
2021/01/03 10:15:26;;;;;;;20.23;12.70;;;2.40;99.90;;;;;;4954767;28;20459;-86
2021/01/03 10:18:08;;;;;;;21.00;12.77;;;2.50;99.90;;;;;;4954976;28;20540;-87
2021/01/03 10:20:41;;;;;;;32.83;15.07;;;2.60;99.90;;;;;;4949653;28;20434;-87
2021/01/03 10:23:11;;;;;;;31.13;14.70;;;2.80;99.90;;;;;;4969950;28;20497;-86
2021/01/03 10:25:37;;;;;;;20.73;12.47;;;2.90;99.90;;;;;;4955528;28;20460;-86
2021/01/03 10:28:14;;;;;;;24.30;13.60;;;3.00;99.90;;;;;;4949091;28;20449;-85
2021/01/03 10:30:41;;;;;;;25.30;13.40;;;3.20;99.90;;;;;;4965374;28;20475;-86
2021/01/03 10:33:08;;;;;;;26.70;14.40;;;3.20;99.90;;;;;;4954170;28;20440;-85
2021/01/03 10:35:39;;;;;;;23.07;12.73;;;3.30;99.90;;;;;;4967206;28;20461;-84
2021/01/03 10:38:07;;;;;;;22.93;12.83;;;3.40;99.90;;;;;;4970609;28;20458;-86
2021/01/03 10:40:34;;;;;;;19.83;12.13;;;3.40;99.90;;;;;;4972015;28;20447;-86
2021/01/03 10:43:02;;;;;;;20.10;13.70;;;3.30;99.90;;;;;;4955155;28;20458;-88
2021/01/03 10:45:35;;;;;;;19.03;11.00;;;3.30;99.90;;;;;;4956724;28;20478;-86
2021/01/03 10:48:06;;;;;;;19.07;12.03;;;3.30;99.90;;;;;;4957418;28;20492;-86
2021/01/03 10:50:42;;;;;;;18.63;11.77;;;3.30;99.90;;;;;;4954938;28;20495;-85
2021/01/03 10:53:18;;;;;;;19.50;12.87;;;3.30;99.90;;;;;;4955281;28;20845;-86
2021/01/03 10:55:44;;;;;;;22.10;13.30;;;3.60;99.90;;;;;;4956099;28;20659;-85
2021/01/03 10:58:13;;;;;;;20.00;13.93;;;3.60;99.90;;;;;;4955175;28;20465;-84
2021/01/03 11:00:59;;;;;;;20.80;13.00;;;3.90;99.90;;;;;;4968636;28;20203;-87
2021/01/03 11:06:36;;;;;;;19.43;11.73;;;4.20;99.90;;;;;;4969114;28;20975;-85
2021/01/03 11:09:36;;;;;;;20.07;12.50;;;4.40;99.90;;;;;;4944690;28;20470;-86
2021/01/03 11:12:37;;;;;;;19.80;12.33;;;4.40;99.90;;;;;;4953067;28;20494;-87
2021/01/03 11:15:14;;;;;;;16.60;11.90;;;4.40;99.90;;;;;;4951988;28;20470;-87
2021/01/03 11:18:03;;;;;;;13.30;9.50;;;4.50;99.90;;;;;;4952022;28;20454;-86
2021/01/03 11:20:46;;;;;;;15.83;10.00;;;4.80;99.90;;;;;;4944373;28;20459;-86
2021/01/03 11:23:24;;;;;;;18.73;10.47;;;4.90;99.90;;;;;;4968076;28;20472;-86
2021/01/03 11:26:04;;;;;;;14.00;9.90;;;4.80;99.90;;;;;;4964963;28;20533;-86
2021/01/03 11:28:32;;;;;;;14.30;9.60;;;4.60;99.90;;;;;;4956294;28;20850;-86
2021/01/03 11:31:04;;;;;;;16.53;10.30;;;4.40;99.90;;;;;;4947882;28;20783;-86
2021/01/03 11:33:55;;;;;;;16.80;10.40;;;4.30;99.90;;;;;;4950845;28;20819;-87
2021/01/03 11:36:24;;;;;;;18.53;10.93;;;4.20;99.90;;;;;;4945370;28;20904;-84
2021/01/03 11:38:57;;;;;;;17.73;11.03;;;4.30;99.90;;;;;;4941414;28;20434;-86
2021/01/03 11:42:04;;;;;;;16.33;10.43;;;4.40;99.90;;;;;;4934078;28;20497;-86
2021/01/03 11:56:11;;;;;;;16.87;10.80;;;4.80;99.90;;;;;;4867641;29;20821;-85
2021/01/03 11:59:01;;;;;;;;;;;;;;;;;;;;;
2021/01/03 12:31:21;;;;;;;;;;;;;;;;;;;;;
2021/01/03 12:50:06;;;;;;;20.63;13.80;;;4.40;99.90;;;;;;4739273;23;20513;-78
2021/01/03 12:52:32;;;;;;;19.00;12.07;;;4.50;99.90;;;;;;4929775;28;20423;-79
2021/01/03 12:54:58;;;;;;;18.17;10.97;;;4.50;99.90;;;;;;4930108;28;20453;-81
2021/01/03 12:57:29;;;;;;;20.43;11.93;;;4.50;99.90;;;;;;4912686;29;20212;-81
2021/01/03 12:59:58;;;;;;;23.40;14.03;;;4.50;99.90;;;;;;4912375;29;20463;-79
2021/01/03 13:02:28;;;;;;;19.53;13.73;;;4.50;99.90;;;;;;4899659;29;20459;-81
2021/01/03 13:04:57;;;;;;;18.43;12.80;;;4.40;99.90;;;;;;4912220;29;20432;-79
2021/01/03 13:07:28;;;;;;;18.27;11.43;;;4.30;99.90;;;;;;4911444;29;20559;-79
2021/01/03 13:09:53;;;;;;;20.83;11.80;;;4.40;99.90;;;;;;4915834;29;20439;-80
2021/01/03 13:12:24;;;;;;;21.17;11.93;;;4.30;99.90;;;;;;4912931;29;20801;-79
2021/01/03 13:14:53;;;;;;;25.20;14.70;;;4.40;99.90;;;;;;4914906;29;20215;-81
2021/01/03 13:17:21;;;;;;;20.13;12.13;;;4.20;99.90;;;;;;4925835;29;20463;-80
2021/01/03 13:20:05;;;;;;;19.53;11.27;;;4.10;99.90;;;;;;4922604;29;20511;-79
2021/01/03 13:22:38;;;;;;;20.17;12.30;;;4.10;99.90;;;;;;4915924;29;20473;-81
2021/01/03 13:25:11;;;;;;;16.17;10.20;;;4.00;99.90;;;;;;4912997;29;20531;-80
2021/01/03 13:27:50;;;;;;;20.20;11.03;;;4.00;99.90;;;;;;4927507;29;20511;-79
2021/01/03 13:30:27;;;;;;;18.17;11.90;;;4.00;99.90;;;;;;4912020;29;20472;-80
2021/01/03 13:33:13;;;;;;;14.30;10.33;;;4.00;99.90;;;;;;4930450;29;20467;-83
2021/01/03 13:35:41;;;;;;;23.47;13.27;;;4.00;99.90;;;;;;4924225;29;20456;-80
2021/01/03 13:38:13;;;;;;;19.87;11.47;;;4.10;99.90;;;;;;4915715;29;20471;-81
2021/01/03 13:40:39;;;;;;;21.97;11.77;;;4.10;99.90;;;;;;4924779;29;20481;-80
2021/01/03 13:43:05;;;;;;;20.33;12.93;;;4.20;99.90;;;;;;4907530;29;20436;-80
2021/01/03 13:45:40;;;;;;;19.13;12.43;;;4.20;99.90;;;;;;4913060;29;20440;-81
2021/01/03 13:48:12;;;;;;;20.97;12.30;;;4.10;99.90;;;;;;4913781;29;20543;-81
2021/01/03 13:50:38;;;;;;;17.70;12.07;;;4.00;99.90;;;;;;4925847;29;20552;-81
2021/01/03 13:53:13;;;;;;;21.43;12.30;;;4.10;99.90;;;;;;4925380;29;20495;-79
2021/01/03 13:55:41;;;;;;;19.00;12.40;;;4.10;99.90;;;;;;4928558;29;20191;-81
2021/01/03 13:58:10;;;;;;;20.37;11.97;;;4.10;99.90;;;;;;4926108;29;20427;-79
2021/01/03 14:00:39;;;;;;;21.73;13.50;;;4.10;99.90;;;;;;4927834;29;20483;-78
2021/01/03 14:03:05;;;;;;;20.53;11.90;;;4.10;99.90;;;;;;4922406;29;20456;-77
2021/01/03 14:05:30;;;;;;;23.50;13.20;;;4.00;99.90;;;;;;4923936;29;20466;-79
2021/01/03 14:07:56;;;;;;;23.47;13.70;;;3.90;99.90;;;;;;4927910;29;20192;-79
2021/01/03 14:10:22;;;;;;;28.37;14.73;;;3.90;99.90;;;;;;4925103;29;20707;-79
2021/01/03 14:12:48;;;;;;;22.50;13.40;;;3.80;99.90;;;;;;4926385;29;20380;-82
2021/01/03 14:15:15;;;;;;;20.33;11.97;;;3.60;99.90;;;;;;4912987;29;20248;-81
2021/01/03 14:17:42;;;;;;;20.23;12.17;;;3.50;99.90;;;;;;4925551;29;21013;-80
2021/01/03 14:20:12;;;;;;;23.23;14.20;;;3.60;99.90;;;;;;4906774;29;20540;-79
2021/01/03 14:22:38;;;;;;;17.00;11.63;;;3.60;99.90;;;;;;4908929;29;20673;-82
2021/01/03 14:25:05;;;;;;;19.97;12.80;;;3.50;99.90;;;;;;4910014;29;20448;-81
2021/01/03 14:27:30;;;;;;;25.10;13.87;;;3.50;99.90;;;;;;4926267;29;20611;-80
2021/01/03 14:29:56;;;;;;;23.73;14.30;;;3.50;99.90;;;;;;4925463;29;20971;-81
2021/01/03 14:32:28;;;;;;;23.80;13.30;;;3.50;99.90;;;;;;4926495;29;20207;-79
2021/01/03 14:34:56;;;;;;;25.40;14.60;;;3.50;99.90;;;;;;4926781;29;20271;-79
2021/01/03 14:37:44;;;;;;;23.90;13.73;;;3.50;99.90;;;;;;4912441;29;20924;-78
2021/01/03 14:40:21;;;;;;;21.27;14.30;;;3.50;99.90;;;;;;4928680;29;20555;-80
2021/01/03 14:43:02;;;;;;;22.20;13.90;;;3.50;99.90;;;;;;4927957;29;20452;-80
2021/01/03 14:45:36;;;;;;;22.20;13.70;;;3.50;99.90;;;;;;4925067;29;20455;-81
2021/01/03 14:48:14;;;;;;;22.70;13.73;;;3.40;99.90;;;;;;4926357;29;20791;-80
2021/01/03 14:50:52;;;;;;;23.50;13.03;;;3.50;99.90;;;;;;4921970;29;20507;-80
2021/01/03 14:53:33;;;;;;;18.33;12.20;;;3.40;99.90;;;;;;4924017;29;20442;-78
2021/01/03 14:56:16;;;;;;;21.63;13.80;;;3.50;99.90;;;;;;4921103;29;21052;-81
2021/01/03 14:59:14;;;;;;;22.73;14.07;;;3.40;99.90;;;;;;4926494;29;20438;-78
2021/01/03 15:02:05;;;;;;;24.17;14.13;;;3.20;99.90;;;;;;4924284;29;20487;-81
2021/01/03 15:04:41;;;;;;;23.07;13.60;;;3.30;99.90;;;;;;4918608;29;20903;-79
2021/01/03 15:07:13;;;;;;;25.67;14.00;;;3.30;99.90;;;;;;4912785;29;20466;-82
2021/01/03 15:09:45;;;;;;;21.90;13.07;;;3.40;99.90;;;;;;4924530;29;20515;-80
2021/01/03 15:12:14;;;;;;;20.23;12.50;;;3.30;99.90;;;;;;4922044;29;20480;-82
2021/01/03 15:14:44;;;;;;;18.13;12.00;;;3.40;99.90;;;;;;4913648;29;20455;-83
2021/01/03 15:17:13;;;;;;;25.40;15.10;;;3.40;99.90;;;;;;4895785;29;20610;-79
2021/01/03 15:20:04;;;;;;;20.60;12.47;;;3.40;99.90;;;;;;4910581;29;20432;-80
2021/01/03 15:23:00;;;;;;;24.63;14.47;;;3.40;99.90;;;;;;4924449;29;20452;-81
2021/01/03 15:26:01;;;;;;;19.00;11.27;;;3.30;99.90;;;;;;4910356;29;20937;-80
2021/01/03 15:28:45;;;;;;;21.50;13.30;;;3.20;99.90;;;;;;4908106;29;21063;-80
2021/01/03 15:31:11;;;;;;;20.50;13.90;;;3.10;99.90;;;;;;4925101;29;21044;-79
2021/01/03 15:33:40;;;;;;;22.80;13.47;;;3.20;99.90;;;;;;4922705;29;20542;-80
2021/01/03 15:36:15;;;;;;;22.10;13.13;;;3.20;99.90;;;;;;4925309;29;20357;-79
2021/01/03 15:54:13;;;;;;;24.90;14.00;;;3.10;99.90;;;;;;5022815;23;20913;-88
2021/01/03 15:56:47;;;;;;;20.70;13.27;;;3.10;99.90;;;;;;4942349;28;20439;-85
2021/01/03 15:59:12;;;;;;;26.87;14.83;;;3.10;99.90;;;;;;4932387;28;20193;-83
2021/01/03 16:01:38;;;;;;;25.20;14.93;;;3.00;99.90;;;;;;4933361;28;20447;-84
2021/01/03 16:04:08;;;;;;;25.97;14.23;;;3.10;99.90;;;;;;4950856;28;20233;-86
2021/01/03 16:06:37;;;;;;;24.30;14.10;;;3.10;99.90;;;;;;4951160;28;20437;-87
2021/01/03 16:09:05;;;;;;;25.63;14.33;;;3.10;99.90;;;;;;4965056;28;20419;-85